sensor_id;sensor_type;location;lat;lon;timestamp;pressure;altitude;pressure_sealevel;temperature;humidity
50349;BME280;36250;48.740;22.174;2023-05-19T00:00:30;101127.78;;;10.83;82.02
50349;BME280;36250;48.740;22.174;2023-05-19T00:02:55;101117.50;;;10.85;81.43
50349;BME280;36250;48.740;22.174;2023-05-19T00:05:21;101114.09;;;10.90;81.46
50349;BME280;36250;48.740;22.174;2023-05-19T00:07:50;101117.13;;;10.82;81.33
50349;BME280;36250;48.740;22.174;2023-05-19T00:10:16;101114.50;;;10.75;81.48
50349;BME280;36250;48.740;22.174;2023-05-19T00:12:42;101117.81;;;10.77;81.57
50349;BME280;36250;48.740;22.174;2023-05-19T00:15:08;101116.63;;;10.73;81.35
50349;BME280;36250;48.740;22.174;2023-05-19T00:17:34;101114.09;;;10.72;81.74
50349;BME280;36250;48.740;22.174;2023-05-19T00:20:01;101109.34;;;10.67;81.57
50349;BME280;36250;48.740;22.174;2023-05-19T00:22:31;101111.63;;;10.70;81.38
50349;BME280;36250;48.740;22.174;2023-05-19T00:24:56;101116.06;;;10.83;81.59
50349;BME280;36250;48.740;22.174;2023-05-19T00:27:22;101113.25;;;10.89;80.77
50349;BME280;36250;48.740;22.174;2023-05-19T00:29:47;101120.59;;;10.89;81.19
50349;BME280;36250;48.740;22.174;2023-05-19T00:32:12;101120.81;;;10.87;81.21
50349;BME280;36250;48.740;22.174;2023-05-19T00:34:38;101124.00;;;10.84;81.53
50349;BME280;36250;48.740;22.174;2023-05-19T00:37:03;101121.72;;;10.81;81.90
50349;BME280;36250;48.740;22.174;2023-05-19T00:39:28;101123.84;;;10.79;82.27
50349;BME280;36250;48.740;22.174;2023-05-19T00:41:54;101127.41;;;10.80;81.66
50349;BME280;36250;48.740;22.174;2023-05-19T00:44:19;101128.25;;;10.80;82.43
50349;BME280;36250;48.740;22.174;2023-05-19T00:46:44;101126.72;;;10.84;82.53
50349;BME280;36250;48.740;22.174;2023-05-19T00:49:10;101131.28;;;10.90;82.19
50349;BME280;36250;48.740;22.174;2023-05-19T00:51:35;101110.06;;;10.92;82.17
50349;BME280;36250;48.740;22.174;2023-05-19T00:54:01;101118.38;;;10.97;82.29
50349;BME280;36250;48.740;22.174;2023-05-19T00:56:27;101115.66;;;10.97;81.76
50349;BME280;36250;48.740;22.174;2023-05-19T00:58:53;101115.66;;;10.97;81.27
50349;BME280;36250;48.740;22.174;2023-05-19T01:01:19;101107.00;;;11.00;81.38
50349;BME280;36250;48.740;22.174;2023-05-19T01:03:46;101106.66;;;10.97;81.79
50349;BME280;36250;48.740;22.174;2023-05-19T01:06:12;101104.50;;;10.87;82.08
50349;BME280;36250;48.740;22.174;2023-05-19T01:08:38;101103.25;;;10.83;81.96
50349;BME280;36250;48.740;22.174;2023-05-19T01:11:06;101103.34;;;10.77;82.27
50349;BME280;36250;48.740;22.174;2023-05-19T01:13:33;101108.94;;;10.82;81.12
50349;BME280;36250;48.740;22.174;2023-05-19T01:18:52;101115.19;;;11.00;80.93
50349;BME280;36250;48.740;22.174;2023-05-19T01:29:39;101112.94;;;11.27;79.84
50349;BME280;36250;48.740;22.174;2023-05-19T01:32:06;101120.28;;;11.27;79.24
50349;BME280;36250;48.740;22.174;2023-05-19T01:34:40;101109.38;;;11.27;79.25
50349;BME280;36250;48.740;22.174;2023-05-19T01:37:06;101108.41;;;11.21;80.20
50349;BME280;36250;48.740;22.174;2023-05-19T01:39:32;101123.41;;;11.12;80.20
50349;BME280;36250;48.740;22.174;2023-05-19T01:42:00;101123.88;;;11.09;80.57
50349;BME280;36250;48.740;22.174;2023-05-19T01:44:26;101121.47;;;11.01;81.05
50349;BME280;36250;48.740;22.174;2023-05-19T01:46:53;101109.94;;;10.87;82.07
50349;BME280;36250;48.740;22.174;2023-05-19T01:49:18;101121.28;;;10.84;81.66
50349;BME280;36250;48.740;22.174;2023-05-19T01:51:44;101123.41;;;10.82;82.15
50349;BME280;36250;48.740;22.174;2023-05-19T01:54:09;101117.56;;;10.79;82.10
50349;BME280;36250;48.740;22.174;2023-05-19T01:57:08;101119.25;;;10.80;81.75
50349;BME280;36250;48.740;22.174;2023-05-19T02:00:09;101123.16;;;10.84;81.17
50349;BME280;36250;48.740;22.174;2023-05-19T02:08:32;101109.63;;;10.95;80.46
50349;BME280;36250;48.740;22.174;2023-05-19T02:11:06;101107.34;;;10.92;80.87
50349;BME280;36250;48.740;22.174;2023-05-19T02:13:37;101102.34;;;10.89;81.03
50349;BME280;36250;48.740;22.174;2023-05-19T02:16:09;101104.25;;;10.89;81.07
50349;BME280;36250;48.740;22.174;2023-05-19T02:18:36;101106.13;;;10.88;80.81
50349;BME280;36250;48.740;22.174;2023-05-19T02:21:02;101104.69;;;10.86;81.02
50349;BME280;36250;48.740;22.174;2023-05-19T02:23:27;101109.34;;;10.85;81.08
50349;BME280;36250;48.740;22.174;2023-05-19T02:25:53;101113.09;;;10.84;81.45
50349;BME280;36250;48.740;22.174;2023-05-19T02:28:18;101114.63;;;10.80;81.51
50349;BME280;36250;48.740;22.174;2023-05-19T02:30:43;101106.31;;;10.75;81.23
50349;BME280;36250;48.740;22.174;2023-05-19T02:33:09;101108.91;;;10.70;80.85
50349;BME280;36250;48.740;22.174;2023-05-19T02:35:35;101114.25;;;10.77;80.85
50349;BME280;36250;48.740;22.174;2023-05-19T02:38:01;101114.78;;;10.85;79.94
50349;BME280;36250;48.740;22.174;2023-05-19T02:40:26;101112.19;;;10.90;80.21
50349;BME280;36250;48.740;22.174;2023-05-19T02:42:51;101119.41;;;10.85;80.17
50349;BME280;36250;48.740;22.174;2023-05-19T02:45:17;101126.75;;;10.48;82.09
50349;BME280;36250;48.740;22.174;2023-05-19T02:47:42;101125.38;;;10.21;82.85
50349;BME280;36250;48.740;22.174;2023-05-19T02:50:08;101136.81;;;10.05;84.11
50349;BME280;36250;48.740;22.174;2023-05-19T02:52:33;101138.13;;;9.96;84.55
50349;BME280;36250;48.740;22.174;2023-05-19T02:54:59;101142.53;;;9.97;84.35
50349;BME280;36250;48.740;22.174;2023-05-19T02:57:24;101137.34;;;9.95;84.40
50349;BME280;36250;48.740;22.174;2023-05-19T02:59:50;101142.53;;;9.97;84.39
50349;BME280;36250;48.740;22.174;2023-05-19T03:02:16;101139.38;;;10.00;84.68
50349;BME280;36250;48.740;22.174;2023-05-19T03:04:41;101147.06;;;10.03;84.55
50349;BME280;36250;48.740;22.174;2023-05-19T03:07:08;101148.75;;;10.04;84.08
50349;BME280;36250;48.740;22.174;2023-05-19T03:09:40;101151.00;;;10.13;83.68
50349;BME280;36250;48.740;22.174;2023-05-19T03:12:06;101157.59;;;10.24;83.45
50349;BME280;36250;48.740;22.174;2023-05-19T03:14:33;101151.22;;;10.30;82.14
50349;BME280;36250;48.740;22.174;2023-05-19T03:16:59;101155.63;;;10.49;81.13
50349;BME280;36250;48.740;22.174;2023-05-19T03:19:25;101149.44;;;10.60;81.02
50349;BME280;36250;48.740;22.174;2023-05-19T03:21:51;101154.91;;;10.78;79.94
50349;BME280;36250;48.740;22.174;2023-05-19T03:24:17;101155.16;;;10.88;80.24
50349;BME280;36250;48.740;22.174;2023-05-19T03:26:42;101154.41;;;10.99;79.28
50349;BME280;36250;48.740;22.174;2023-05-19T03:29:07;101152.56;;;11.11;78.39
50349;BME280;36250;48.740;22.174;2023-05-19T03:31:33;101148.91;;;11.17;78.54
50349;BME280;36250;48.740;22.174;2023-05-19T03:33:58;101152.97;;;11.27;78.28
50349;BME280;36250;48.740;22.174;2023-05-19T03:36:23;101157.03;;;11.36;78.23
50349;BME280;36250;48.740;22.174;2023-05-19T03:38:49;101148.75;;;11.42;78.03
50349;BME280;36250;48.740;22.174;2023-05-19T03:41:14;101148.41;;;11.39;78.49
50349;BME280;36250;48.740;22.174;2023-05-19T03:43:39;101153.25;;;11.37;78.37
50349;BME280;36250;48.740;22.174;2023-05-19T03:46:05;101158.72;;;11.37;78.69
50349;BME280;36250;48.740;22.174;2023-05-19T03:48:30;101158.59;;;11.43;77.87
50349;BME280;36250;48.740;22.174;2023-05-19T03:50:55;101152.19;;;11.49;78.47
50349;BME280;36250;48.740;22.174;2023-05-19T03:53:22;101157.72;;;11.31;78.71
50349;BME280;36250;48.740;22.174;2023-05-19T03:55:47;101159.41;;;11.02;80.48
50349;BME280;36250;48.740;22.174;2023-05-19T03:58:14;101169.56;;;10.77;81.67
50349;BME280;36250;48.740;22.174;2023-05-19T04:00:40;101169.69;;;10.64;82.02
50349;BME280;36250;48.740;22.174;2023-05-19T04:03:05;101176.06;;;10.58;82.70
50349;BME280;36250;48.740;22.174;2023-05-19T04:05:32;101178.19;;;10.56;83.00
50349;BME280;36250;48.740;22.174;2023-05-19T04:07:57;101179.78;;;10.64;82.75
50349;BME280;36250;48.740;22.174;2023-05-19T04:10:22;101175.53;;;10.68;82.88
50349;BME280;36250;48.740;22.174;2023-05-19T04:12:48;101181.28;;;10.78;82.46
50349;BME280;36250;48.740;22.174;2023-05-19T04:15:13;101182.69;;;10.98;82.58
50349;BME280;36250;48.740;22.174;2023-05-19T04:17:39;101177.91;;;11.12;82.26
50349;BME280;36250;48.740;22.174;2023-05-19T04:20:05;101178.56;;;11.26;81.93
50349;BME280;36250;48.740;22.174;2023-05-19T04:22:31;101176.50;;;11.39;80.82
50349;BME280;36250;48.740;22.174;2023-05-19T04:24:56;101181.97;;;11.51;81.02
50349;BME280;36250;48.740;22.174;2023-05-19T04:27:22;101170.25;;;11.62;80.20
50349;BME280;36250;48.740;22.174;2023-05-19T04:29:48;101172.22;;;11.73;80.11
50349;BME280;36250;48.740;22.174;2023-05-19T04:32:13;101175.44;;;11.81;79.96
50349;BME280;36250;48.740;22.174;2023-05-19T04:34:42;101161.22;;;11.91;78.58
50349;BME280;36250;48.740;22.174;2023-05-19T04:37:10;101166.59;;;12.09;77.73
50349;BME280;36250;48.740;22.174;2023-05-19T04:39:36;101166.09;;;12.24;77.34
50349;BME280;36250;48.740;22.174;2023-05-19T04:42:04;101165.50;;;12.33;78.17
50349;BME280;36250;48.740;22.174;2023-05-19T04:44:30;101172.16;;;12.37;77.68
50349;BME280;36250;48.740;22.174;2023-05-19T04:46:55;101168.13;;;12.28;76.59
50349;BME280;36250;48.740;22.174;2023-05-19T04:49:22;101161.59;;;12.41;79.04
50349;BME280;36250;48.740;22.174;2023-05-19T04:51:48;101166.91;;;12.47;79.69
50349;BME280;36250;48.740;22.174;2023-05-19T04:54:15;101156.59;;;12.38;78.71
50349;BME280;36250;48.740;22.174;2023-05-19T04:56:41;101171.31;;;12.48;78.85
50349;BME280;36250;48.740;22.174;2023-05-19T04:59:08;101159.44;;;12.54;78.30
50349;BME280;36250;48.740;22.174;2023-05-19T05:01:34;101158.22;;;12.62;77.85
50349;BME280;36250;48.740;22.174;2023-05-19T05:04:04;101166.41;;;12.74;77.92
50349;BME280;36250;48.740;22.174;2023-05-19T05:06:29;101167.13;;;12.81;77.91
50349;BME280;36250;48.740;22.174;2023-05-19T05:08:55;101162.09;;;12.89;77.07
50349;BME280;36250;48.740;22.174;2023-05-19T05:11:21;101167.69;;;12.83;75.82
50349;BME280;36250;48.740;22.174;2023-05-19T05:13:47;101168.28;;;12.85;76.14
50349;BME280;36250;48.740;22.174;2023-05-19T05:16:13;101174.09;;;12.88;77.06
50349;BME280;36250;48.740;22.174;2023-05-19T05:18:38;101167.50;;;13.01;76.06
50349;BME280;36250;48.740;22.174;2023-05-19T05:21:05;101163.72;;;13.02;75.38
50349;BME280;36250;48.740;22.174;2023-05-19T05:23:30;101167.88;;;13.04;75.76
50349;BME280;36250;48.740;22.174;2023-05-19T05:25:56;101163.38;;;13.10;74.33
50349;BME280;36250;48.740;22.174;2023-05-19T05:28:22;101165.69;;;13.18;74.07
50349;BME280;36250;48.740;22.174;2023-05-19T05:30:47;101162.19;;;13.34;73.33
50349;BME280;36250;48.740;22.174;2023-05-19T05:33:13;101165.50;;;13.36;73.35
50349;BME280;36250;48.740;22.174;2023-05-19T05:35:39;101172.69;;;13.54;72.77
50349;BME280;36250;48.740;22.174;2023-05-19T05:38:04;101165.72;;;13.63;71.89
50349;BME280;36250;48.740;22.174;2023-05-19T05:40:30;101166.97;;;13.72;70.43
50349;BME280;36250;48.740;22.174;2023-05-19T05:42:56;101156.94;;;13.77;70.64
50349;BME280;36250;48.740;22.174;2023-05-19T05:45:23;101152.81;;;13.92;70.31
50349;BME280;36250;48.740;22.174;2023-05-19T05:47:49;101155.13;;;14.16;71.42
50349;BME280;36250;48.740;22.174;2023-05-19T05:50:15;101161.59;;;14.27;71.65
50349;BME280;36250;48.740;22.174;2023-05-19T05:52:45;101171.41;;;14.39;72.25
50349;BME280;36250;48.740;22.174;2023-05-19T05:55:11;101170.63;;;14.44;71.37
50349;BME280;36250;48.740;22.174;2023-05-19T05:57:36;101170.44;;;14.51;71.43
50349;BME280;36250;48.740;22.174;2023-05-19T06:00:03;101172.34;;;14.50;70.99
50349;BME280;36250;48.740;22.174;2023-05-19T06:02:31;101179.31;;;14.58;70.25
50349;BME280;36250;48.740;22.174;2023-05-19T06:04:56;101183.59;;;14.70;69.87
50349;BME280;36250;48.740;22.174;2023-05-19T06:07:22;101178.34;;;14.85;70.08
50349;BME280;36250;48.740;22.174;2023-05-19T06:09:48;101176.72;;;14.89;68.85
50349;BME280;36250;48.740;22.174;2023-05-19T06:12:13;101179.88;;;14.98;69.14
50349;BME280;36250;48.740;22.174;2023-05-19T06:14:39;101179.44;;;15.06;68.51
50349;BME280;36250;48.740;22.174;2023-05-19T06:17:04;101193.44;;;15.09;68.66
50349;BME280;36250;48.740;22.174;2023-05-19T06:19:29;101190.56;;;15.21;67.84
50349;BME280;36250;48.740;22.174;2023-05-19T06:21:55;101188.19;;;15.30;67.07
50349;BME280;36250;48.740;22.174;2023-05-19T06:24:20;101189.03;;;15.30;67.66
50349;BME280;36250;48.740;22.174;2023-05-19T06:26:45;101191.63;;;15.42;67.11
50349;BME280;36250;48.740;22.174;2023-05-19T06:29:11;101200.50;;;15.49;65.62
50349;BME280;36250;48.740;22.174;2023-05-19T06:31:36;101194.75;;;15.50;66.49
50349;BME280;36250;48.740;22.174;2023-05-19T06:34:01;101200.44;;;15.70;64.34
50349;BME280;36250;48.740;22.174;2023-05-19T06:36:27;101197.47;;;15.72;65.27
50349;BME280;36250;48.740;22.174;2023-05-19T06:38:52;101203.34;;;15.86;65.32
50349;BME280;36250;48.740;22.174;2023-05-19T06:41:18;101202.59;;;15.95;64.94
50349;BME280;36250;48.740;22.174;2023-05-19T06:43:43;101205.69;;;15.99;65.76
50349;BME280;36250;48.740;22.174;2023-05-19T06:46:08;101213.38;;;16.02;64.95
50349;BME280;36250;48.740;22.174;2023-05-19T06:48:34;101214.84;;;16.14;65.41
50349;BME280;36250;48.740;22.174;2023-05-19T06:50:59;101209.91;;;16.11;66.29
50349;BME280;36250;48.740;22.174;2023-05-19T06:53:25;101212.03;;;16.04;65.40
50349;BME280;36250;48.740;22.174;2023-05-19T06:55:50;101208.00;;;16.17;66.05
50349;BME280;36250;48.740;22.174;2023-05-19T06:58:16;101218.88;;;16.38;65.81
50349;BME280;36250;48.740;22.174;2023-05-19T07:00:41;101209.00;;;16.37;64.85
50349;BME280;36250;48.740;22.174;2023-05-19T07:03:07;101213.25;;;16.18;66.14
50349;BME280;36250;48.740;22.174;2023-05-19T07:05:32;101212.19;;;16.24;67.20
50349;BME280;36250;48.740;22.174;2023-05-19T07:07:58;101196.84;;;16.28;66.54
50349;BME280;36250;48.740;22.174;2023-05-19T07:10:23;101204.00;;;16.29;67.15
50349;BME280;36250;48.740;22.174;2023-05-19T07:12:48;101209.50;;;16.29;66.42
50349;BME280;36250;48.740;22.174;2023-05-19T07:15:14;101210.59;;;16.33;67.17
50349;BME280;36250;48.740;22.174;2023-05-19T07:17:39;101202.28;;;16.55;67.43
50349;BME280;36250;48.740;22.174;2023-05-19T07:20:05;101201.03;;;16.78;67.12
50349;BME280;36250;48.740;22.174;2023-05-19T07:22:31;101201.09;;;16.88;65.67
50349;BME280;36250;48.740;22.174;2023-05-19T07:24:59;101201.13;;;16.93;65.46
50349;BME280;36250;48.740;22.174;2023-05-19T07:27:25;101206.06;;;16.91;65.00
50349;BME280;36250;48.740;22.174;2023-05-19T07:29:50;101196.22;;;17.05;64.22
50349;BME280;36250;48.740;22.174;2023-05-19T07:32:16;101199.78;;;17.00;64.74
50349;BME280;36250;48.740;22.174;2023-05-19T07:34:41;101195.38;;;17.04;64.66
50349;BME280;36250;48.740;22.174;2023-05-19T07:37:06;101202.28;;;17.12;65.09
50349;BME280;36250;48.740;22.174;2023-05-19T07:39:33;101194.34;;;17.16;64.49
50349;BME280;36250;48.740;22.174;2023-05-19T07:41:59;101194.66;;;17.29;63.73
50349;BME280;36250;48.740;22.174;2023-05-19T07:44:24;101193.59;;;17.35;63.87
50349;BME280;36250;48.740;22.174;2023-05-19T07:46:51;101194.13;;;17.37;63.75
50349;BME280;36250;48.740;22.174;2023-05-19T07:49:16;101189.28;;;17.64;63.99
50349;BME280;36250;48.740;22.174;2023-05-19T07:51:42;101184.03;;;17.68;63.28
50349;BME280;36250;48.740;22.174;2023-05-19T07:54:07;101181.28;;;17.73;62.18
50349;BME280;36250;48.740;22.174;2023-05-19T07:56:33;101180.75;;;17.66;62.20
50349;BME280;36250;48.740;22.174;2023-05-19T07:58:58;101179.38;;;17.68;63.24
50349;BME280;36250;48.740;22.174;2023-05-19T08:01:23;101175.78;;;17.73;62.94
50349;BME280;36250;48.740;22.174;2023-05-19T08:03:49;101184.63;;;17.80;63.11
50349;BME280;36250;48.740;22.174;2023-05-19T08:06:14;101179.94;;;17.96;62.08
50349;BME280;36250;48.740;22.174;2023-05-19T08:08:39;101174.97;;;18.13;62.23
50349;BME280;36250;48.740;22.174;2023-05-19T08:11:06;101175.81;;;18.33;63.09
50349;BME280;36250;48.740;22.174;2023-05-19T08:13:31;101170.53;;;18.57;62.52
50349;BME280;36250;48.740;22.174;2023-05-19T08:15:57;101165.22;;;18.81;60.93
50349;BME280;36250;48.740;22.174;2023-05-19T08:18:26;101170.50;;;18.72;61.22
50349;BME280;36250;48.740;22.174;2023-05-19T08:20:52;101172.97;;;18.69;61.27
50349;BME280;36250;48.740;22.174;2023-05-19T08:23:17;101161.69;;;18.65;62.02
50349;BME280;36250;48.740;22.174;2023-05-19T08:25:43;101170.19;;;18.84;61.40
50349;BME280;36250;48.740;22.174;2023-05-19T08:28:09;101165.66;;;19.08;62.03
50349;BME280;36250;48.740;22.174;2023-05-19T08:30:34;101164.78;;;19.18;60.75
50349;BME280;36250;48.740;22.174;2023-05-19T08:32:59;101161.75;;;19.19;61.03
50349;BME280;36250;48.740;22.174;2023-05-19T08:35:25;101159.50;;;19.31;62.37
50349;BME280;36250;48.740;22.174;2023-05-19T08:37:50;101165.75;;;19.47;60.09
50349;BME280;36250;48.740;22.174;2023-05-19T08:40:17;101162.47;;;19.45;61.03
50349;BME280;36250;48.740;22.174;2023-05-19T08:42:44;101154.63;;;19.62;62.12
50349;BME280;36250;48.740;22.174;2023-05-19T08:45:09;101163.78;;;19.91;61.27
50349;BME280;36250;48.740;22.174;2023-05-19T08:47:35;101156.06;;;19.88;61.20
50349;BME280;36250;48.740;22.174;2023-05-19T08:50:05;101160.50;;;19.89;59.88
50349;BME280;36250;48.740;22.174;2023-05-19T08:52:52;101152.91;;;20.05;60.41
50349;BME280;36250;48.740;22.174;2023-05-19T08:55:41;101155.44;;;20.30;60.23
50349;BME280;36250;48.740;22.174;2023-05-19T08:58:08;101147.25;;;20.49;59.35
50349;BME280;36250;48.740;22.174;2023-05-19T09:00:35;101145.97;;;20.65;59.54
50349;BME280;36250;48.740;22.174;2023-05-19T09:03:01;101144.44;;;20.77;59.76
50349;BME280;36250;48.740;22.174;2023-05-19T09:05:27;101145.00;;;20.74;57.91
50349;BME280;36250;48.740;22.174;2023-05-19T09:07:52;101144.19;;;20.74;58.71
50349;BME280;36250;48.740;22.174;2023-05-19T09:10:18;101139.72;;;20.78;57.49
50349;BME280;36250;48.740;22.174;2023-05-19T09:12:45;101143.19;;;20.88;59.41
50349;BME280;36250;48.740;22.174;2023-05-19T09:15:12;101142.31;;;20.69;59.21
50349;BME280;36250;48.740;22.174;2023-05-19T09:17:38;101143.47;;;20.40;60.42
50349;BME280;36250;48.740;22.174;2023-05-19T09:20:06;101139.59;;;20.41;59.85
50349;BME280;36250;48.740;22.174;2023-05-19T09:22:43;101137.59;;;20.46;61.49
50349;BME280;36250;48.740;22.174;2023-05-19T09:25:45;101138.97;;;20.72;61.50
50349;BME280;36250;48.740;22.174;2023-05-19T09:28:10;101137.94;;;20.87;60.04
50349;BME280;36250;48.740;22.174;2023-05-19T09:30:36;101140.41;;;20.88;59.64
50349;BME280;36250;48.740;22.174;2023-05-19T09:33:01;101133.53;;;20.62;60.53
50349;BME280;36250;48.740;22.174;2023-05-19T09:35:28;101137.03;;;20.73;58.70
50349;BME280;36250;48.740;22.174;2023-05-19T09:37:53;101128.66;;;20.78;59.86
50349;BME280;36250;48.740;22.174;2023-05-19T09:40:19;101127.13;;;20.90;61.18
50349;BME280;36250;48.740;22.174;2023-05-19T09:42:45;101131.66;;;21.05;60.19
50349;BME280;36250;48.740;22.174;2023-05-19T09:45:12;101131.66;;;21.05;59.68
50349;BME280;36250;48.740;22.174;2023-05-19T09:47:39;101130.53;;;21.06;58.38
50349;BME280;36250;48.740;22.174;2023-05-19T09:50:07;101132.06;;;21.17;59.30
50349;BME280;36250;48.740;22.174;2023-05-19T09:52:37;101139.00;;;21.33;58.68
50349;BME280;36250;48.740;22.174;2023-05-19T09:55:08;101134.97;;;21.07;58.98
50349;BME280;36250;48.740;22.174;2023-05-19T09:57:34;101126.69;;;21.02;57.96
50349;BME280;36250;48.740;22.174;2023-05-19T10:00:06;101117.44;;;21.12;59.13
50349;BME280;36250;48.740;22.174;2023-05-19T10:02:43;101118.81;;;21.14;57.97
50349;BME280;36250;48.740;22.174;2023-05-19T10:05:16;101115.88;;;21.24;57.89
50349;BME280;36250;48.740;22.174;2023-05-19T10:07:45;101102.78;;;21.48;57.99
50349;BME280;36250;48.740;22.174;2023-05-19T10:10:13;101108.16;;;21.58;56.96
50349;BME280;36250;48.740;22.174;2023-05-19T10:12:39;101110.97;;;21.72;56.92
50349;BME280;36250;48.740;22.174;2023-05-19T10:15:09;101112.72;;;21.87;56.55
50349;BME280;36250;48.740;22.174;2023-05-19T10:17:39;101113.56;;;22.01;55.78
50349;BME280;36250;48.740;22.174;2023-05-19T10:20:11;101112.44;;;22.02;57.77
50349;BME280;36250;48.740;22.174;2023-05-19T10:22:38;101104.44;;;21.82;56.82
50349;BME280;36250;48.740;22.174;2023-05-19T10:25:05;101106.22;;;21.59;56.85
50349;BME280;36250;48.740;22.174;2023-05-19T10:27:34;101112.28;;;21.61;57.67
50349;BME280;36250;48.740;22.174;2023-05-19T10:30:13;101106.69;;;21.80;56.33
50349;BME280;36250;48.740;22.174;2023-05-19T10:32:41;101107.69;;;21.89;56.45
50349;BME280;36250;48.740;22.174;2023-05-19T10:40:42;101103.72;;;22.08;53.81
50349;BME280;36250;48.740;22.174;2023-05-19T10:46:12;101094.31;;;22.23;54.48
50349;BME280;36250;48.740;22.174;2023-05-19T10:48:43;101100.50;;;22.20;55.80
50349;BME280;36250;48.740;22.174;2023-05-19T10:51:08;101100.91;;;22.27;56.26
50349;BME280;36250;48.740;22.174;2023-05-19T10:53:40;101095.97;;;22.38;56.37
50349;BME280;36250;48.740;22.174;2023-05-19T10:56:05;101091.69;;;22.72;54.07
50349;BME280;36250;48.740;22.174;2023-05-19T11:01:07;101098.03;;;22.86;53.95
50349;BME280;36250;48.740;22.174;2023-05-19T11:03:53;101088.28;;;23.03;53.97
50349;BME280;36250;48.740;22.174;2023-05-19T11:06:31;101089.72;;;23.00;52.44
50349;BME280;36250;48.740;22.174;2023-05-19T11:09:14;101093.66;;;23.21;53.11
50349;BME280;36250;48.740;22.174;2023-05-19T11:14:10;101082.81;;;23.33;52.66
50349;BME280;36250;48.740;22.174;2023-05-19T11:16:39;101081.91;;;23.38;52.19
50349;BME280;36250;48.740;22.174;2023-05-19T11:19:16;101085.22;;;23.40;51.19
50349;BME280;36250;48.740;22.174;2023-05-19T11:21:47;101083.34;;;23.71;51.34
50349;BME280;36250;48.740;22.174;2023-05-19T11:24:45;101082.59;;;23.79;48.82
50349;BME280;36250;48.740;22.174;2023-05-19T11:27:28;101077.19;;;23.83;49.84
50349;BME280;36250;48.740;22.174;2023-05-19T11:30:10;101075.75;;;23.85;50.13
50349;BME280;36250;48.740;22.174;2023-05-19T11:32:38;101078.28;;;24.04;47.86
50349;BME280;36250;48.740;22.174;2023-05-19T11:35:06;101068.22;;;24.08;48.12
50349;BME280;36250;48.740;22.174;2023-05-19T11:37:33;101060.53;;;24.13;48.24
50349;BME280;36250;48.740;22.174;2023-05-19T11:40:03;101066.56;;;24.38;46.34
50349;BME280;36250;48.740;22.174;2023-05-19T11:42:31;101061.28;;;24.28;44.59
50349;BME280;36250;48.740;22.174;2023-05-19T11:44:56;101061.50;;;24.48;46.89
50349;BME280;36250;48.740;22.174;2023-05-19T11:47:22;101056.66;;;24.62;46.43
50349;BME280;36250;48.740;22.174;2023-05-19T11:49:47;101056.78;;;24.49;44.59
50349;BME280;36250;48.740;22.174;2023-05-19T11:52:13;101055.34;;;24.60;44.76
50349;BME280;36250;48.740;22.174;2023-05-19T11:54:39;101052.75;;;24.72;45.77
50349;BME280;36250;48.740;22.174;2023-05-19T11:57:07;101058.00;;;24.73;45.31
50349;BME280;36250;48.740;22.174;2023-05-19T11:59:35;101054.75;;;24.80;46.62
50349;BME280;36250;48.740;22.174;2023-05-19T12:02:24;101060.75;;;24.65;44.80
50349;BME280;36250;48.740;22.174;2023-05-19T12:04:52;101054.53;;;24.68;43.27
50349;BME280;36250;48.740;22.174;2023-05-19T12:07:19;101050.84;;;24.90;43.70
50349;BME280;36250;48.740;22.174;2023-05-19T12:09:47;101062.75;;;24.73;45.45
50349;BME280;36250;48.740;22.174;2023-05-19T12:12:17;101052.66;;;24.77;44.06
50349;BME280;36250;48.740;22.174;2023-05-19T12:14:45;101048.09;;;24.98;41.15
50349;BME280;36250;48.740;22.174;2023-05-19T12:17:15;101047.94;;;25.03;43.16
50349;BME280;36250;48.740;22.174;2023-05-19T12:19:45;101046.63;;;25.26;42.64
50349;BME280;36250;48.740;22.174;2023-05-19T12:22:12;101044.34;;;25.28;40.92
50349;BME280;36250;48.740;22.174;2023-05-19T12:24:37;101036.97;;;25.50;42.10
50349;BME280;36250;48.740;22.174;2023-05-19T12:27:11;101040.25;;;25.52;39.57
50349;BME280;36250;48.740;22.174;2023-05-19T12:29:39;101038.94;;;25.58;39.90
50349;BME280;36250;48.740;22.174;2023-05-19T12:32:08;101033.00;;;25.16;39.61
50349;BME280;36250;48.740;22.174;2023-05-19T12:34:37;101036.94;;;25.15;39.97
50349;BME280;36250;48.740;22.174;2023-05-19T12:37:03;101038.59;;;25.08;39.06
50349;BME280;36250;48.740;22.174;2023-05-19T12:39:29;101041.72;;;25.23;40.60
50349;BME280;36250;48.740;22.174;2023-05-19T12:42:02;101034.19;;;25.50;40.00
50349;BME280;36250;48.740;22.174;2023-05-19T12:44:27;101029.06;;;25.69;39.56
50349;BME280;36250;48.740;22.174;2023-05-19T12:46:56;101025.16;;;25.70;38.81
50349;BME280;36250;48.740;22.174;2023-05-19T12:49:21;101034.00;;;25.63;39.62
50349;BME280;36250;48.740;22.174;2023-05-19T12:51:51;101027.41;;;25.68;40.84
50349;BME280;36250;48.740;22.174;2023-05-19T12:54:20;101029.50;;;25.96;37.82
50349;BME280;36250;48.740;22.174;2023-05-19T12:56:52;101028.41;;;25.72;40.37
50349;BME280;36250;48.740;22.174;2023-05-19T12:59:22;101028.75;;;25.62;41.04
50349;BME280;36250;48.740;22.174;2023-05-19T13:01:57;101022.31;;;25.78;41.27
50349;BME280;36250;48.740;22.174;2023-05-19T13:04:23;101022.63;;;25.94;39.68
50349;BME280;36250;48.740;22.174;2023-05-19T13:06:49;101021.63;;;25.98;39.67
50349;BME280;36250;48.740;22.174;2023-05-19T13:09:15;101008.09;;;26.26;39.00
50349;BME280;36250;48.740;22.174;2023-05-19T13:11:42;101014.81;;;26.25;39.47